Time;durP1;ratioP1;P1;durP2;ratioP2;P2;SDS_P1;SDS_P2;PMS_P1;PMS_P2;Temp;Humidity;BMP_temperature;BMP_pressure;BME280_temperature;BME280_humidity;BME280_pressure;Samples;Min_cycle;Max_cycle;Signal;HPM_P1;HPM_P2
2023/06/09 00:00:23;;;;;;;17.45;6.57;;;;;;;-146.25;100.00;52128.94;2075985;28;20039;-70
2023/06/09 00:01:25;;;;;;;20.90;7.45;;;;;;;-146.25;100.00;52141.13;2075862;28;34014;-71
2023/06/09 00:02:27;;;;;;;18.65;6.72;;;;;;;-146.25;100.00;52165.44;2079280;28;31182;-69
2023/06/09 00:03:31;;;;;;;20.90;6.40;;;;;;;-146.25;100.00;52133.00;2075764;28;25932;-69
2023/06/09 00:04:37;;;;;;;21.63;6.70;;;;;;;-146.25;100.00;52177.59;2080772;28;20127;-72
2023/06/09 00:05:39;;;;;;;20.45;6.30;;;;;;;-146.25;100.00;52147.19;2063533;28;31005;-71
2023/06/09 00:06:43;;;;;;;17.98;6.50;;;;;;;-146.25;100.00;52116.78;2074567;28;38563;-69
2023/06/09 00:07:47;;;;;;;18.77;6.05;;;;;;;-146.25;100.00;52143.13;2071901;28;20046;-70
2023/06/09 00:08:50;;;;;;;18.23;6.25;;;;;;;-146.25;100.00;52137.06;2063379;28;39780;-70
2023/06/09 00:09:52;;;;;;;19.13;6.50;;;;;;;-146.25;100.00;52161.38;2073967;28;35000;-70
2023/06/09 00:10:54;;;;;;;19.98;6.72;;;;;;;-146.25;100.00;52173.56;2077874;28;20049;-70
2023/06/09 00:11:58;;;;;;;17.63;6.50;;;;;;;-146.25;100.00;52149.22;2071342;28;35689;-70
2023/06/09 00:13:00;;;;;;;17.75;6.55;;;;;;;-146.25;100.00;52126.91;2071402;28;33345;-70
2023/06/09 00:14:02;;;;;;;16.65;6.78;;;;;;;-146.25;100.00;52126.91;2071586;28;35761;-70
2023/06/09 00:15:04;;;;;;;18.38;7.10;;;;;;;-146.25;100.00;52145.16;2071434;28;35862;-70
2023/06/09 00:16:07;;;;;;;21.10;7.13;;;;;;;-146.25;100.00;52133.00;2071347;28;31180;-69
2023/06/09 00:17:08;;;;;;;19.02;6.88;;;;;;;-146.25;100.00;52153.28;2071754;28;30741;-70
2023/06/09 00:18:14;;;;;;;20.83;6.78;;;;;;;-146.25;100.00;52157.34;2071255;28;34575;-70
2023/06/09 00:19:19;;;;;;;15.02;7.07;;;;;;;-146.25;100.00;52169.50;2072347;28;20078;-70
2023/06/09 00:20:21;;;;;;;13.75;6.13;;;;;;;-146.25;100.00;52171.53;2071617;28;38427;-69
2023/06/09 00:21:25;;;;;;;18.00;7.03;;;;;;;-146.25;100.00;52151.25;2071468;28;34859;-70
2023/06/09 00:22:27;;;;;;;21.20;7.60;;;;;;;-146.25;100.00;52155.31;2071850;28;20084;-69
2023/06/09 00:23:29;;;;;;;22.98;7.25;;;;;;;-146.25;100.00;52137.06;2073837;28;32456;-70
2023/06/09 00:24:31;;;;;;;21.40;7.07;;;;;;;-146.25;100.00;52128.94;2071502;28;25056;-69
2023/06/09 00:25:32;;;;;;;24.35;7.40;;;;;;;-146.25;100.00;52153.28;2071685;28;34982;-70
2023/06/09 00:26:34;;;;;;;18.38;7.13;;;;;;;-146.25;100.00;52128.94;2071456;28;31311;-71
2023/06/09 00:27:39;;;;;;;18.20;7.50;;;;;;;-146.25;100.00;52139.09;2064247;28;20047;-70
2023/06/09 00:28:43;;;;;;;20.88;7.85;;;;;;;-146.25;100.00;52157.34;2063852;28;29302;-70
2023/06/09 00:29:45;;;;;;;15.80;6.65;;;;;;;-146.25;100.00;52169.50;2070741;28;25721;-70
2023/06/09 00:30:46;;;;;;;21.52;7.82;;;;;;;-146.25;100.00;52133.00;2071314;28;21013;-70
2023/06/09 00:31:48;;;;;;;17.48;7.53;;;;;;;-146.25;100.00;52179.63;2071415;28;26351;-71
2023/06/09 00:32:50;;;;;;;16.33;7.40;;;;;;;-146.25;100.00;52120.84;2070593;28;31250;-69
2023/06/09 00:33:52;;;;;;;17.98;7.55;;;;;;;-146.25;100.00;52137.06;2071326;28;24629;-70
2023/06/09 00:34:54;;;;;;;17.70;6.90;;;;;;;-146.25;100.00;52159.34;2070718;28;29140;-70
2023/06/09 00:35:56;;;;;;;20.48;7.95;;;;;;;-146.25;100.00;52124.91;2071206;28;30527;-70
2023/06/09 00:36:58;;;;;;;18.65;7.20;;;;;;;-146.25;100.00;52126.91;2078466;28;31524;-70
2023/06/09 00:38:00;;;;;;;20.85;7.38;;;;;;;-146.25;100.00;52179.63;2071289;28;33885;-70
2023/06/09 00:39:03;;;;;;;21.70;7.95;;;;;;;-146.25;100.00;52139.09;2070972;28;20042;-70
2023/06/09 00:40:08;;;;;;;16.02;7.60;;;;;;;-146.25;100.00;52130.97;2070787;28;29832;-70
2023/06/09 00:41:10;;;;;;;15.63;6.70;;;;;;;-146.25;100.00;52133.00;2079274;28;20084;-70
2023/06/09 00:42:14;;;;;;;15.95;7.18;;;;;;;-146.25;100.00;52128.94;2079894;28;22901;-71
2023/06/09 00:43:16;;;;;;;19.95;7.40;;;;;;;-146.25;100.00;52080.28;2071178;28;27051;-72
2023/06/09 00:44:18;;;;;;;19.73;7.63;;;;;;;-146.25;100.00;52165.44;2072056;28;20161;-71
2023/06/09 00:45:22;;;;;;;17.85;7.75;;;;;;;-146.25;100.00;52179.63;2071204;28;27924;-70
2023/06/09 00:46:23;;;;;;;18.50;8.00;;;;;;;-146.25;100.00;52149.22;2070524;28;31035;-70
2023/06/09 00:47:28;;;;;;;21.70;7.80;;;;;;;-146.25;100.00;52135.03;2063059;28;31334;-71
2023/06/09 00:48:35;;;;;;;14.25;7.80;;;;;;;-146.25;100.00;52143.13;2063331;28;20046;-71
2023/06/09 00:49:37;;;;;;;16.27;7.13;;;;;;;-146.25;100.00;52163.41;2055549;28;20901;-70
2023/06/09 00:50:40;;;;;;;20.67;7.60;;;;;;;-146.25;100.00;52159.34;2063317;28;31182;-71
2023/06/09 00:51:42;;;;;;;17.42;7.35;;;;;;;-146.25;100.00;52161.38;2070667;28;27256;-69
2023/06/09 00:52:45;;;;;;;15.43;7.03;;;;;;;-146.25;100.00;52149.22;2062718;28;24791;-71
2023/06/09 00:53:47;;;;;;;23.35;7.78;;;;;;;-146.25;100.00;52153.28;2065018;28;37124;-70
2023/06/09 00:54:52;;;;;;;20.42;8.50;;;;;;;-146.25;100.00;52165.44;2070963;28;29336;-71
2023/06/09 00:55:56;;;;;;;20.50;7.63;;;;;;;-146.25;100.00;52167.47;2070452;28;27685;-71
2023/06/09 00:56:58;;;;;;;17.80;7.38;;;;;;;-146.25;100.00;52193.81;2071015;28;29929;-71
2023/06/09 00:58:02;;;;;;;19.02;7.55;;;;;;;-146.25;100.00;52181.66;2071834;28;20191;-70
2023/06/09 00:59:06;;;;;;;18.88;7.45;;;;;;;-146.25;100.00;52151.25;2071516;28;32252;-71
2023/06/09 01:00:11;;;;;;;19.27;7.68;;;;;;;-146.25;100.00;52151.25;2070767;28;25943;-70
2023/06/09 01:01:15;;;;;;;23.27;8.10;;;;;;;-146.25;100.00;52173.56;2063864;28;28667;-71
2023/06/09 01:02:19;;;;;;;16.52;8.02;;;;;;;-146.25;100.00;52137.06;2071880;28;31682;-71
2023/06/09 01:03:26;;;;;;;18.60;7.45;;;;;;;-146.25;100.00;52191.81;2077860;28;20046;-71
2023/06/09 01:04:32;;;;;;;21.45;8.07;;;;;;;-146.25;100.00;52206.00;2079250;28;25195;-71
2023/06/09 01:05:37;;;;;;;20.83;7.65;;;;;;;-146.25;100.00;52108.66;2063183;28;34471;-71
2023/06/09 01:07:16;;;;;;;19.65;8.07;;;;;;;-146.25;100.00;52181.66;2070425;28;20986;-72
2023/06/09 01:08:25;;;;;;;16.75;7.45;;;;;;;-146.25;100.00;52106.66;2074348;28;22493;-71
2023/06/09 01:09:42;;;;;;;21.13;7.85;;;;;;;-146.25;100.00;52153.28;2065421;28;20047;-71
2023/06/09 01:11:06;;;;;;;20.15;8.68;;;;;;;-146.25;100.00;52167.47;2065093;28;20039;-71
2023/06/09 01:12:26;;;;;;;22.50;7.75;;;;;;;-146.25;100.00;52137.06;2071671;28;20165;-71
2023/06/09 01:13:43;;;;;;;22.90;8.15;;;;;;;-146.25;100.00;52135.03;2070965;28;33860;-71
2023/06/09 01:15:00;;;;;;;18.45;7.90;;;;;;;-146.25;100.00;52122.88;2069464;28;20043;-70
2023/06/09 01:16:12;;;;;;;18.88;8.07;;;;;;;-146.25;100.00;52122.88;2062236;28;35648;-71
2023/06/09 01:17:18;;;;;;;16.05;7.88;;;;;;;-146.25;100.00;52179.63;2065787;28;26562;-72
2023/06/09 01:18:24;;;;;;;24.75;8.43;;;;;;;-146.25;100.00;52141.13;2063458;28;34287;-71
2023/06/09 01:19:34;;;;;;;20.45;8.25;;;;;;;-146.25;100.00;52173.56;2062538;28;25050;-71
2023/06/09 01:21:12;;;;;;;18.83;8.63;;;;;;;-146.25;100.00;52157.34;2057273;28;31388;-71
2023/06/09 01:22:33;;;;;;;17.60;7.97;;;;;;;-146.25;100.00;52143.13;2045118;28;31950;-71
2023/06/09 01:24:15;;;;;;;20.42;8.27;;;;;;;-146.25;100.00;52151.25;2038038;29;24287;-70
2023/06/09 01:25:41;;;;;;;22.98;8.18;;;;;;;-146.25;100.00;52139.09;2068101;28;20057;-71
2023/06/09 01:26:50;;;;;;;19.48;7.85;;;;;;;-146.25;100.00;52165.44;2066756;28;20026;-70
2023/06/09 01:27:57;;;;;;;21.02;8.40;;;;;;;-146.25;100.00;52171.53;2057957;28;20078;-70
2023/06/09 01:28:59;;;;;;;19.48;8.02;;;;;;;-146.25;100.00;52183.69;2061903;28;21470;-72
2023/06/09 01:30:02;;;;;;;22.40;8.75;;;;;;;-146.25;100.00;52193.81;2063934;28;20074;-71
2023/06/09 01:31:08;;;;;;;20.90;8.77;;;;;;;-146.25;100.00;52159.34;2067617;28;20062;-70
2023/06/09 01:32:15;;;;;;;19.52;8.02;;;;;;;-146.25;100.00;52167.47;2070635;28;28690;-71
2023/06/09 01:33:23;;;;;;;23.58;8.77;;;;;;;-146.25;100.00;52143.13;2062963;28;30276;-70
2023/06/09 01:34:27;;;;;;;23.13;9.40;;;;;;;-146.25;100.00;52161.38;2064943;28;21845;-71
2023/06/09 01:35:30;;;;;;;24.40;8.70;;;;;;;-146.25;100.00;52153.28;2056271;28;20062;-71
2023/06/09 01:36:35;;;;;;;22.90;8.95;;;;;;;-146.25;100.00;52139.09;2055482;28;20039;-72
2023/06/09 01:37:38;;;;;;;22.83;8.85;;;;;;;-146.25;100.00;52163.41;2061971;28;27864;-70
2023/06/09 01:38:41;;;;;;;20.88;8.30;;;;;;;-146.25;100.00;52169.50;2071688;28;20882;-70
2023/06/09 01:39:46;;;;;;;21.13;8.73;;;;;;;-146.25;100.00;52177.59;2070848;28;23478;-70
2023/06/09 01:40:48;;;;;;;19.08;8.75;;;;;;;-146.25;100.00;52181.66;2071766;28;21973;-70
2023/06/09 01:41:50;;;;;;;20.58;9.20;;;;;;;-146.25;100.00;52139.09;2070757;28;20038;-69
2023/06/09 01:42:52;;;;;;;20.90;9.68;;;;;;;-146.25;100.00;52157.34;2065465;28;20043;-70
2023/06/09 01:43:55;;;;;;;21.85;8.65;;;;;;;-146.25;100.00;52122.88;2071327;28;20145;-70
2023/06/09 01:44:56;;;;;;;20.05;8.98;;;;;;;-146.25;100.00;52130.97;2071738;28;21025;-70
2023/06/09 01:45:58;;;;;;;22.52;8.63;;;;;;;-146.25;100.00;52147.19;2073471;28;20042;-70
2023/06/09 01:47:01;;;;;;;25.92;9.05;;;;;;;-146.25;100.00;52143.13;2067025;28;30976;-71
2023/06/09 01:48:20;;;;;;;26.50;9.00;;;;;;;-146.25;100.00;52151.25;2067388;28;20054;-69
2023/06/09 01:49:37;;;;;;;23.50;9.63;;;;;;;-146.25;100.00;52155.31;2067687;28;20031;-70
2023/06/09 01:50:43;;;;;;;26.42;8.95;;;;;;;-146.25;100.00;52141.13;2057704;28;28285;-71
2023/06/09 01:51:45;;;;;;;19.92;8.98;;;;;;;-146.25;100.00;52159.34;2057089;28;32950;-70
2023/06/09 01:52:53;;;;;;;23.35;8.75;;;;;;;-146.25;100.00;52165.44;2070225;28;33053;-71
2023/06/09 01:54:06;;;;;;;23.00;8.73;;;;;;;-146.25;100.00;52155.31;2068088;28;35482;-70
2023/06/09 01:55:19;;;;;;;20.63;8.43;;;;;;;-146.25;100.00;52149.22;2064742;28;27887;-70
2023/06/09 01:56:27;;;;;;;24.15;9.70;;;;;;;-146.25;100.00;52139.09;2063764;28;23619;-70
2023/06/09 01:57:39;;;;;;;24.33;8.98;;;;;;;-146.25;100.00;52139.09;2065287;28;20058;-71
2023/06/09 01:58:47;;;;;;;24.45;9.98;;;;;;;-146.25;100.00;52153.28;2064944;28;20227;-71
2023/06/09 01:59:57;;;;;;;21.42;8.73;;;;;;;-146.25;100.00;52124.91;2063745;28;20047;-71
2023/06/09 02:01:02;;;;;;;16.70;8.18;;;;;;;-146.25;100.00;52128.94;2063849;28;20078;-70
2023/06/09 02:02:07;;;;;;;22.60;9.82;;;;;;;-146.25;100.00;52149.22;2070866;28;20113;-70
2023/06/09 02:03:11;;;;;;;23.27;8.93;;;;;;;-146.25;100.00;52185.72;2069934;28;20156;-70
2023/06/09 02:04:14;;;;;;;19.30;8.35;;;;;;;-146.25;100.00;52128.94;2059424;28;29973;-70
2023/06/09 02:05:20;;;;;;;22.02;8.35;;;;;;;-146.25;100.00;52151.25;2065526;28;20149;-69
2023/06/09 02:06:23;;;;;;;21.83;9.05;;;;;;;-146.25;100.00;52133.00;2070291;28;22232;-69
2023/06/09 02:07:26;;;;;;;22.70;9.07;;;;;;;-146.25;100.00;52161.38;2064848;28;25262;-70
2023/06/09 02:08:29;;;;;;;24.35;8.80;;;;;;;-146.25;100.00;52171.53;2063376;28;20055;-69
2023/06/09 02:09:35;;;;;;;18.98;9.10;;;;;;;-146.25;100.00;52159.34;2062759;28;20976;-71
2023/06/09 02:10:38;;;;;;;23.42;9.23;;;;;;;-146.25;100.00;52183.69;2062449;28;20047;-71
2023/06/09 02:11:40;;;;;;;22.23;9.27;;;;;;;-146.25;100.00;52114.75;2063323;28;25952;-71
2023/06/09 02:12:49;;;;;;;19.08;9.77;;;;;;;-146.25;100.00;52137.06;2070972;28;20107;-71
2023/06/09 02:13:53;;;;;;;22.75;9.77;;;;;;;-146.25;100.00;52141.13;2070658;28;20057;-72
2023/06/09 02:14:57;;;;;;;20.90;9.52;;;;;;;-146.25;100.00;52169.50;2066019;28;20126;-70
2023/06/09 02:15:58;;;;;;;23.50;8.85;;;;;;;-146.25;100.00;52137.06;2070643;28;25894;-71
2023/06/09 02:17:04;;;;;;;22.95;9.10;;;;;;;-146.25;100.00;52149.22;2070021;28;26478;-70
2023/06/09 02:18:07;;;;;;;30.10;10.20;;;;;;;-146.25;100.00;52155.31;2070967;28;22384;-71
2023/06/09 02:19:12;;;;;;;25.75;9.55;;;;;;;-146.25;100.00;52169.50;2072385;28;20035;-71
2023/06/09 02:20:14;;;;;;;20.55;9.68;;;;;;;-146.25;100.00;52157.34;2072027;28;20077;-71
2023/06/09 02:21:16;;;;;;;20.17;9.25;;;;;;;-146.25;100.00;52183.69;2071226;28;24503;-70
2023/06/09 02:22:20;;;;;;;26.67;9.35;;;;;;;-146.25;100.00;52137.06;2072466;28;26679;-71
2023/06/09 02:23:27;;;;;;;19.52;8.90;;;;;;;-146.25;100.00;52137.06;2072088;28;20176;-71
2023/06/09 02:24:29;;;;;;;24.63;9.43;;;;;;;-146.25;100.00;52169.50;2057014;28;26445;-71
2023/06/09 02:25:32;;;;;;;24.67;9.52;;;;;;;-146.25;100.00;52157.34;2057352;28;20063;-71
2023/06/09 02:26:34;;;;;;;23.15;10.02;;;;;;;-146.25;100.00;52173.56;2072348;28;20105;-72
2023/06/09 02:27:37;;;;;;;20.52;9.60;;;;;;;-146.25;100.00;52179.63;2071758;28;20046;-71
2023/06/09 02:28:39;;;;;;;26.67;10.20;;;;;;;-146.25;100.00;52114.75;2065446;28;20039;-72
2023/06/09 02:29:41;;;;;;;21.88;9.57;;;;;;;-146.25;100.00;52128.94;2072097;28;26405;-71
2023/06/09 02:30:46;;;;;;;24.70;9.70;;;;;;;-146.25;100.00;52167.47;2072047;28;20945;-71
2023/06/09 02:31:48;;;;;;;24.13;9.85;;;;;;;-146.25;100.00;52171.53;2071521;28;20416;-71
2023/06/09 02:32:49;;;;;;;23.25;10.20;;;;;;;-146.25;100.00;52153.28;2072560;28;23347;-71
2023/06/09 02:33:53;;;;;;;19.08;9.20;;;;;;;-146.25;100.00;52197.88;2072528;28;20074;-71
2023/06/09 02:34:55;;;;;;;25.85;9.93;;;;;;;-146.25;100.00;52159.34;2071765;28;20039;-71
2023/06/09 02:35:57;;;;;;;21.38;9.85;;;;;;;-146.25;100.00;52163.41;2063375;28;20046;-71
2023/06/09 02:37:00;;;;;;;22.00;10.25;;;;;;;-146.25;100.00;52175.56;2073794;28;21068;-72
2023/06/09 02:38:05;;;;;;;21.63;9.80;;;;;;;-146.25;100.00;52153.28;2071372;28;33205;-71
2023/06/09 02:39:07;;;;;;;26.30;10.45;;;;;;;-146.25;100.00;52167.47;2072333;28;20788;-71
2023/06/09 02:40:12;;;;;;;21.00;9.38;;;;;;;-146.25;100.00;52165.44;2076879;28;21104;-72
2023/06/09 02:41:14;;;;;;;22.50;10.40;;;;;;;-146.25;100.00;52181.66;2075068;28;26791;-70
2023/06/09 02:42:16;;;;;;;24.90;9.88;;;;;;;-146.25;100.00;52161.38;2071556;28;20041;-69
2023/06/09 02:43:18;;;;;;;22.27;10.30;;;;;;;-146.25;100.00;52155.31;2080138;28;20030;-71
2023/06/09 02:44:21;;;;;;;22.77;9.85;;;;;;;-146.25;100.00;52133.00;2075465;28;20045;-70
2023/06/09 02:45:24;;;;;;;25.85;10.30;;;;;;;-146.25;100.00;52181.66;2073370;28;20047;-70
2023/06/09 02:46:25;;;;;;;20.65;8.98;;;;;;;-146.25;100.00;52159.34;2069264;28;21106;-69
2023/06/09 02:47:32;;;;;;;18.92;9.80;;;;;;;-146.25;100.00;52169.50;2064870;28;20046;-70
2023/06/09 02:48:35;;;;;;;18.90;9.32;;;;;;;-146.25;100.00;52161.38;2078670;28;20906;-70
2023/06/09 02:49:37;;;;;;;21.83;8.77;;;;;;;-146.25;100.00;52171.53;2063998;28;21005;-70
2023/06/09 02:50:38;;;;;;;19.73;9.55;;;;;;;-146.25;100.00;52163.41;2072003;28;23562;-70
2023/06/09 02:51:43;;;;;;;20.58;10.07;;;;;;;-146.25;100.00;52147.19;2072280;28;20055;-70
2023/06/09 02:52:48;;;;;;;24.33;10.32;;;;;;;-146.25;100.00;52173.56;2063704;28;20051;-73
2023/06/09 02:53:51;;;;;;;23.63;9.73;;;;;;;-146.25;100.00;52157.34;2063971;28;20047;-69
2023/06/09 02:54:53;;;;;;;24.20;9.95;;;;;;;-146.25;100.00;52218.16;2055764;28;20186;-70
2023/06/09 02:55:55;;;;;;;21.60;10.45;;;;;;;-146.25;100.00;52169.50;2057894;28;20051;-70
2023/06/09 02:57:02;;;;;;;22.88;10.55;;;;;;;-146.25;100.00;52165.44;2069014;28;20163;-71
2023/06/09 02:58:06;;;;;;;21.27;9.50;;;;;;;-146.25;100.00;52183.69;2056075;28;20047;-70
2023/06/09 02:59:11;;;;;;;27.55;11.27;;;;;;;-146.25;100.00;52159.34;2060340;28;20043;-70
2023/06/09 03:00:14;;;;;;;25.90;10.20;;;;;;;-146.25;100.00;52167.47;2071975;28;20055;-70
2023/06/09 03:01:21;;;;;;;21.15;9.88;;;;;;;-146.25;100.00;52171.53;2066128;28;20737;-70
2023/06/09 03:02:26;;;;;;;21.67;9.98;;;;;;;-146.25;100.00;52169.50;2064530;28;20154;-69
2023/06/09 03:03:29;;;;;;;22.23;10.02;;;;;;;-146.25;100.00;52175.56;2065175;28;20959;-70
2023/06/09 03:04:35;;;;;;;23.33;10.60;;;;;;;-146.25;100.00;52165.44;2071947;28;20049;-70
2023/06/09 03:05:40;;;;;;;21.73;10.50;;;;;;;-146.25;100.00;52171.53;2071472;28;20058;-70
2023/06/09 03:06:44;;;;;;;23.50;10.27;;;;;;;-146.25;100.00;52167.47;2064485;28;20030;-69
2023/06/09 03:07:49;;;;;;;24.38;10.57;;;;;;;-146.25;100.00;52157.34;2064426;28;20161;-70
2023/06/09 03:08:51;;;;;;;17.48;9.63;;;;;;;-146.25;100.00;52177.59;2071788;28;20050;-71
2023/06/09 03:09:53;;;;;;;21.58;10.77;;;;;;;-146.25;100.00;52163.41;2071736;28;21005;-71
2023/06/09 03:10:58;;;;;;;24.75;9.82;;;;;;;-146.25;100.00;52169.50;2066598;28;20054;-70
2023/06/09 03:12:00;;;;;;;30.23;10.60;;;;;;;-146.25;100.00;52155.31;2072516;28;20133;-71
2023/06/09 03:13:03;;;;;;;24.42;10.68;;;;;;;-146.25;100.00;52128.94;2071825;28;20058;-69
2023/06/09 03:14:07;;;;;;;20.13;9.95;;;;;;;-146.25;100.00;52157.34;2063788;28;20047;-70
2023/06/09 03:15:11;;;;;;;25.70;10.80;;;;;;;-146.25;100.00;52191.81;2071736;28;21209;-70
2023/06/09 03:16:16;;;;;;;22.95;11.43;;;;;;;-146.25;100.00;52193.81;2071893;28;20050;-71
2023/06/09 03:17:18;;;;;;;25.00;10.98;;;;;;;-146.25;100.00;52173.56;2063694;28;20090;-71
2023/06/09 03:18:21;;;;;;;26.80;10.90;;;;;;;-146.25;100.00;52210.03;2063879;28;20047;-71
2023/06/09 03:19:23;;;;;;;24.20;10.50;;;;;;;-146.25;100.00;52183.69;2063761;28;20039;-70
2023/06/09 03:20:27;;;;;;;24.83;11.07;;;;;;;-146.25;100.00;52179.63;2063680;28;20050;-70
2023/06/09 03:21:29;;;;;;;26.75;10.90;;;;;;;-146.25;100.00;52147.19;2056013;28;20182;-69
2023/06/09 03:22:32;;;;;;;28.00;10.57;;;;;;;-146.25;100.00;52169.50;2055664;28;20185;-70
2023/06/09 03:23:34;;;;;;;20.42;10.32;;;;;;;-146.25;100.00;52165.44;2063694;28;20054;-70
2023/06/09 03:24:36;;;;;;;27.55;10.45;;;;;;;-146.25;100.00;52193.81;2063662;28;20179;-70
2023/06/09 03:25:39;;;;;;;18.02;8.95;;;;;;;-146.25;100.00;52185.72;2064152;28;20997;-70
2023/06/09 03:26:42;;;;;;;25.20;10.40;;;;;;;-146.25;100.00;52214.09;2064738;28;20070;-69
2023/06/09 03:27:45;;;;;;;23.98;10.35;;;;;;;-146.25;100.00;52157.34;2063774;28;20105;-70
2023/06/09 03:28:52;;;;;;;27.00;10.00;;;;;;;-146.25;100.00;52167.47;2072047;28;20173;-70
2023/06/09 03:29:56;;;;;;;23.23;10.82;;;;;;;-146.25;100.00;52197.88;2070600;28;20050;-69
2023/06/09 03:30:58;;;;;;;27.42;10.30;;;;;;;-146.25;100.00;52199.91;2071821;28;20799;-70
2023/06/09 03:32:02;;;;;;;21.40;9.75;;;;;;;-146.25;100.00;52206.00;2079530;28;20818;-70
2023/06/09 03:33:05;;;;;;;21.48;10.15;;;;;;;-146.25;100.00;52161.38;2071694;28;21036;-70
2023/06/09 03:34:07;;;;;;;24.83;10.38;;;;;;;-146.25;100.00;52171.53;2071505;28;20045;-69
2023/06/09 03:35:12;;;;;;;18.98;9.73;;;;;;;-146.25;100.00;52157.34;2072491;28;20148;-69
2023/06/09 03:36:14;;;;;;;27.92;10.68;;;;;;;-146.25;100.00;52210.03;2071456;28;20035;-71
2023/06/09 03:37:16;;;;;;;24.27;11.05;;;;;;;-146.25;100.00;52201.94;2063251;28;20865;-69
2023/06/09 03:38:23;;;;;;;22.67;10.82;;;;;;;-146.25;100.00;52197.88;2071562;28;20081;-69
2023/06/09 03:39:25;;;;;;;19.80;10.50;;;;;;;-146.25;100.00;52173.56;2071385;28;20047;-69
2023/06/09 03:40:27;;;;;;;24.35;10.57;;;;;;;-146.25;100.00;52193.81;2062968;28;20908;-69
2023/06/09 03:41:30;;;;;;;24.23;10.50;;;;;;;-146.25;100.00;52181.66;2063672;28;20368;-69
2023/06/09 03:42:33;;;;;;;23.42;10.02;;;;;;;-146.25;100.00;52133.00;2063310;28;20991;-69
2023/06/09 03:43:34;;;;;;;21.13;9.93;;;;;;;-146.25;100.00;52173.56;2079310;28;20869;-69
2023/06/09 03:44:37;;;;;;;21.35;10.35;;;;;;;-146.25;100.00;52175.56;2072858;28;20042;-69
2023/06/09 03:45:39;;;;;;;19.42;9.57;;;;;;;-146.25;100.00;52183.69;2071304;28;20140;-70
2023/06/09 03:46:43;;;;;;;20.40;10.13;;;;;;;-146.25;100.00;52208.03;2062850;28;20132;-69
2023/06/09 03:47:46;;;;;;;25.98;10.43;;;;;;;-146.25;100.00;52201.94;2071175;28;20867;-69
2023/06/09 03:48:49;;;;;;;28.25;11.10;;;;;;;-146.25;100.00;52179.63;2063125;28;20051;-69
2023/06/09 03:49:51;;;;;;;23.42;10.65;;;;;;;-146.25;100.00;52199.91;2063396;28;20975;-70
2023/06/09 03:50:52;;;;;;;20.27;10.73;;;;;;;-146.25;100.00;52120.84;2068152;28;20051;-71
2023/06/09 03:51:54;;;;;;;22.40;10.70;;;;;;;-146.25;100.00;52169.50;2071698;28;20930;-69
2023/06/09 03:52:56;;;;;;;18.65;9.98;;;;;;;-146.25;100.00;52193.81;2071320;28;20081;-69
2023/06/09 03:53:58;;;;;;;27.63;10.55;;;;;;;-146.25;100.00;52173.56;2055540;28;20043;-70
2023/06/09 03:55:00;;;;;;;27.70;10.75;;;;;;;-146.25;100.00;52149.22;2054834;28;20900;-70
2023/06/09 03:56:07;;;;;;;26.40;10.20;;;;;;;-146.25;100.00;52191.81;2055827;28;20044;-68
2023/06/09 03:57:10;;;;;;;23.25;10.65;;;;;;;-146.25;100.00;52181.66;2060872;28;20141;-69
2023/06/09 03:58:13;;;;;;;19.30;9.57;;;;;;;-146.25;100.00;52175.56;2063287;28;20233;-70
2023/06/09 03:59:16;;;;;;;22.77;9.38;;;;;;;-146.25;100.00;52153.28;2063197;28;20051;-69
2023/06/09 04:00:19;;;;;;;24.95;10.35;;;;;;;-146.25;100.00;52201.94;2063689;28;20145;-70
2023/06/09 04:01:21;;;;;;;17.52;10.05;;;;;;;-146.25;100.00;52222.22;2070364;28;43192;-69
2023/06/09 04:02:24;;;;;;;19.38;10.07;;;;;;;-146.25;100.00;52141.13;2071363;28;20173;-70
2023/06/09 04:03:26;;;;;;;21.10;9.73;;;;;;;-146.25;100.00;52175.56;2071079;28;20173;-70
2023/06/09 04:04:30;;;;;;;21.58;9.57;;;;;;;-146.25;100.00;52175.56;2071612;28;20895;-70
2023/06/09 04:05:32;;;;;;;19.83;8.75;;;;;;;-146.25;100.00;52218.16;2063420;28;20047;-69
2023/06/09 04:06:37;;;;;;;19.23;9.90;;;;;;;-146.25;100.00;52171.53;2072176;28;20070;-70
2023/06/09 04:07:39;;;;;;;18.13;9.15;;;;;;;-146.25;100.00;52173.56;2063239;28;21005;-70
2023/06/09 04:08:44;;;;;;;22.33;9.05;;;;;;;-146.25;100.00;52193.81;2064193;28;20089;-70
2023/06/09 04:09:46;;;;;;;17.55;8.23;;;;;;;-146.25;98.91;52214.09;2071017;28;20047;-70
2023/06/09 04:10:51;;;;;;;19.45;8.60;;;;;;;-146.25;97.71;52173.56;2056056;28;20055;-70
2023/06/09 04:11:53;;;;;;;14.13;8.38;;;;;;;-146.25;96.43;52185.72;2055944;28;26035;-70
2023/06/09 04:12:55;;;;;;;19.70;8.35;;;;;;;-146.25;96.20;52185.72;2063653;28;21008;-70
2023/06/09 04:14:03;;;;;;;14.73;8.02;;;;;;;-146.25;94.38;52189.78;2071241;28;20120;-70
2023/06/09 04:15:06;;;;;;;17.45;8.23;;;;;;;-146.25;93.57;52210.03;2067126;28;20039;-69
2023/06/09 04:16:09;;;;;;;13.55;7.45;;;;;;;-146.25;92.46;52177.59;2064426;28;20150;-70
2023/06/09 04:17:11;;;;;;;19.05;8.13;;;;;;;-146.25;89.07;52173.56;2071139;28;20935;-70
2023/06/09 04:18:13;;;;;;;12.85;7.00;;;;;;;-146.25;88.84;52183.69;2071426;28;20046;-70
2023/06/09 04:19:17;;;;;;;15.38;8.35;;;;;;;-146.25;87.69;52171.53;2071457;28;20034;-70
2023/06/09 04:20:22;;;;;;;18.42;7.32;;;;;;;-146.25;87.08;52236.41;2071239;28;20046;-70
2023/06/09 04:21:24;;;;;;;12.50;7.20;;;;;;;-146.25;84.71;52187.75;2072107;28;20061;-70
2023/06/09 04:22:27;;;;;;;16.75;7.45;;;;;;;-146.25;84.52;52173.56;2079076;28;20046;-70
2023/06/09 04:23:28;;;;;;;14.60;8.05;;;;;;;-146.25;84.39;52218.16;2070117;28;29033;-70
2023/06/09 04:24:31;;;;;;;12.77;6.70;;;;;;;-146.25;81.06;52165.44;2071181;28;20161;-70
2023/06/09 04:25:34;;;;;;;14.52;6.60;;;;;;;-146.25;80.07;52177.59;2071269;28;20990;-70
2023/06/09 04:26:43;;;;;;;17.40;7.18;;;;;;;-146.25;80.56;52224.25;2064182;28;20187;-70
2023/06/09 04:27:48;;;;;;;14.63;6.88;;;;;;;-146.25;80.71;52197.88;2071329;28;21004;-70
2023/06/09 04:28:53;;;;;;;12.27;6.38;;;;;;;-146.25;79.79;52187.75;2071315;28;20042;-70
2023/06/09 04:29:57;;;;;;;12.70;6.80;;;;;;;-146.25;78.74;52210.03;2072374;28;20331;-70
2023/06/09 04:31:00;;;;;;;16.75;7.35;;;;;;;-146.25;79.00;52193.81;2071496;28;32047;-70
2023/06/09 04:32:07;;;;;;;12.80;6.72;;;;;;;-146.25;79.10;52169.50;2071121;28;20875;-70
2023/06/09 04:33:09;;;;;;;17.70;6.82;;;;;;;-146.25;78.66;52149.22;2064090;28;20058;-70
2023/06/09 04:34:15;;;;;;;13.48;6.95;;;;;;;-146.25;74.83;52187.75;2062953;28;20966;-70
2023/06/09 04:35:23;;;;;;;17.17;6.32;;;;;;;-146.25;76.11;52193.81;2069800;28;20043;-71
2023/06/09 04:36:24;;;;;;;16.67;7.20;;;;;;;-146.25;75.48;52224.25;2063086;28;20123;-70
2023/06/09 04:37:29;;;;;;;14.25;6.45;;;;;;;-146.25;75.38;52185.72;2062149;28;20136;-70
2023/06/09 04:38:33;;;;;;;14.35;6.32;;;;;;;-146.25;73.01;52175.56;2071032;28;20148;-70
2023/06/09 04:39:36;;;;;;;12.23;6.30;;;;;;;-146.25;73.63;52199.91;2063311;28;20198;-70
2023/06/09 04:40:45;;;;;;;15.07;6.57;;;;;;;-146.25;72.89;52169.50;2055450;28;20964;-70
2023/06/09 04:41:48;;;;;;;12.32;6.00;;;;;;;-146.25;70.89;52179.63;2062675;28;20173;-70
2023/06/09 04:42:59;;;;;;;13.50;6.22;;;;;;;-146.25;71.94;52173.56;2072920;28;20046;-70
2023/06/09 04:44:05;;;;;;;12.88;6.40;;;;;;;-146.25;72.28;52224.25;2063320;28;20059;-70
2023/06/09 04:45:16;;;;;;;15.73;5.90;;;;;;;-146.25;71.18;52163.41;2050312;28;20040;-70
2023/06/09 04:46:24;;;;;;;13.20;6.30;;;;;;;-146.25;71.18;52167.47;2065308;28;20241;-70
2023/06/09 04:47:26;;;;;;;13.98;6.22;;;;;;;-146.25;68.53;52187.75;2063145;28;20053;-70
2023/06/09 04:48:29;;;;;;;14.05;6.20;;;;;;;-146.25;69.30;52163.41;2070953;28;26468;-70
2023/06/09 04:49:35;;;;;;;11.32;5.55;;;;;;;-146.25;67.63;52157.34;2070595;28;20857;-71
2023/06/09 04:50:37;;;;;;;15.32;6.30;;;;;;;-146.25;65.58;52212.06;2070815;28;20153;-71